Time;durP1;ratioP1;P1;durP2;ratioP2;P2;SDS_P1;SDS_P2;PMS_P1;PMS_P2;Temp;Humidity;BMP_temperature;BMP_pressure;BME280_temperature;BME280_humidity;BME280_pressure;Samples;Min_cycle;Max_cycle;Signal;HPM_P1;HPM_P2
2021/01/28 00:02:22;;;;;;;21.17;14.13;;;4.20;99.90;;;;;;4989181;28;20026;-45
2021/01/28 00:04:47;;;;;;;18.98;12.38;;;4.20;99.90;;;;;;4995228;28;20030;-46
2021/01/28 00:07:13;;;;;;;19.95;13.10;;;4.20;99.90;;;;;;4989090;28;20031;-48
2021/01/28 00:09:38;;;;;;;21.00;13.45;;;4.10;99.90;;;;;;4996523;28;20038;-45
2021/01/28 00:12:05;;;;;;;18.85;12.73;;;4.10;99.90;;;;;;5009223;28;20049;-45
2021/01/28 00:14:30;;;;;;;22.33;13.20;;;4.10;99.90;;;;;;5008711;28;20163;-46
2021/01/28 00:16:56;;;;;;;19.85;13.05;;;4.20;99.90;;;;;;5028463;28;20060;-45
2021/01/28 00:19:21;;;;;;;21.50;12.77;;;4.20;99.90;;;;;;5026588;28;20042;-46
2021/01/28 00:21:47;;;;;;;24.65;14.30;;;4.10;99.90;;;;;;5028322;28;20063;-45
2021/01/28 00:24:12;;;;;;;19.83;12.60;;;4.20;99.90;;;;;;5025295;28;20033;-47
2021/01/28 00:26:38;;;;;;;20.10;13.13;;;4.20;99.90;;;;;;5027653;28;20477;-45
2021/01/28 00:29:05;;;;;;;22.27;13.77;;;4.20;99.90;;;;;;5006749;28;20068;-46
2021/01/28 00:31:31;;;;;;;21.42;13.82;;;4.20;99.90;;;;;;5009309;28;20468;-45
2021/01/28 00:33:56;;;;;;;21.65;13.32;;;4.20;99.90;;;;;;5008298;28;20026;-45
2021/01/28 00:36:22;;;;;;;23.50;15.18;;;4.20;99.90;;;;;;5007831;28;20518;-44
2021/01/28 00:38:47;;;;;;;22.58;12.95;;;4.20;99.90;;;;;;5008332;28;20041;-48
2021/01/28 00:41:13;;;;;;;18.98;13.18;;;4.20;99.90;;;;;;5010877;28;20036;-46
2021/01/28 00:43:38;;;;;;;21.25;13.57;;;4.20;99.90;;;;;;5011829;28;20491;-44
2021/01/28 00:46:05;;;;;;;22.45;14.50;;;4.20;99.90;;;;;;5011531;28;20185;-45
2021/01/28 00:48:31;;;;;;;24.38;14.43;;;4.20;99.90;;;;;;5011593;28;20026;-47
2021/01/28 00:50:58;;;;;;;24.95;15.00;;;4.20;99.90;;;;;;5011891;28;20502;-46
2021/01/28 00:53:24;;;;;;;23.17;15.10;;;4.20;99.90;;;;;;5011704;28;20550;-45
2021/01/28 00:55:49;;;;;;;25.42;15.25;;;4.10;99.90;;;;;;5011152;28;20195;-44
2021/01/28 00:58:18;;;;;;;26.65;15.70;;;4.10;99.90;;;;;;5015990;28;20103;-45
2021/01/28 01:00:45;;;;;;;24.73;15.18;;;4.10;99.90;;;;;;5031648;28;20029;-44
2021/01/28 01:03:14;;;;;;;27.33;15.75;;;4.20;99.90;;;;;;5031038;28;20300;-45
2021/01/28 01:05:40;;;;;;;27.02;15.27;;;4.10;99.90;;;;;;5031021;28;20030;-45
2021/01/28 01:08:08;;;;;;;27.65;16.60;;;4.10;99.90;;;;;;5031712;28;20014;-43
2021/01/28 01:10:39;;;;;;;25.40;15.63;;;4.10;99.90;;;;;;5030111;28;20483;-46
2021/01/28 01:13:09;;;;;;;28.67;16.52;;;4.10;99.90;;;;;;5031152;28;20068;-45
2021/01/28 01:15:36;;;;;;;29.40;17.45;;;4.10;99.90;;;;;;5030633;28;20116;-45
2021/01/28 01:18:02;;;;;;;26.00;16.33;;;4.10;99.90;;;;;;5031278;28;20033;-45
2021/01/28 01:20:28;;;;;;;32.47;16.48;;;4.10;99.90;;;;;;5030636;28;20517;-45
2021/01/28 01:22:54;;;;;;;31.50;18.17;;;4.20;99.90;;;;;;5031078;28;20486;-46
2021/01/28 01:25:20;;;;;;;31.42;18.27;;;4.20;99.90;;;;;;5028937;28;20032;-46
2021/01/28 01:27:45;;;;;;;33.38;19.20;;;4.10;99.90;;;;;;5030815;28;20506;-45
2021/01/28 01:30:13;;;;;;;30.20;17.85;;;4.20;99.90;;;;;;5030680;28;20029;-45
2021/01/28 01:32:38;;;;;;;33.45;18.73;;;4.20;99.90;;;;;;5030691;28;20411;-45
2021/01/28 01:35:07;;;;;;;40.53;18.13;;;4.30;99.90;;;;;;5029753;28;20025;-45
2021/01/28 01:37:32;;;;;;;35.00;18.30;;;4.30;99.90;;;;;;5029692;28;20454;-45
2021/01/28 01:39:58;;;;;;;33.08;19.23;;;4.30;99.90;;;;;;5029507;28;20045;-46
2021/01/28 01:42:24;;;;;;;33.60;19.80;;;4.30;99.90;;;;;;5012945;28;20022;-46
2021/01/28 01:44:50;;;;;;;36.55;19.83;;;4.40;99.90;;;;;;5030062;28;20037;-44
2021/01/28 01:47:37;;;;;;;37.55;20.05;;;4.40;99.90;;;;;;5030781;28;20036;-45
2021/01/28 01:50:12;;;;;;;34.30;19.00;;;4.40;99.90;;;;;;5029152;28;20018;-45
2021/01/28 01:52:38;;;;;;;37.60;19.30;;;4.40;99.90;;;;;;5028915;28;20375;-45
2021/01/28 01:55:04;;;;;;;38.80;20.10;;;4.40;99.90;;;;;;5030006;28;20022;-45
2021/01/28 01:57:35;;;;;;;39.40;20.13;;;4.40;99.90;;;;;;5030665;28;20021;-48
2021/01/28 02:00:08;;;;;;;;;;;4.40;99.90;;;;;;5030935;28;20475;-45
2021/01/28 02:02:37;;;;;;;36.78;19.27;;;4.40;99.90;;;;;;5030358;28;19912;-47
2021/01/28 02:05:25;;;;;;;40.20;19.92;;;4.40;99.90;;;;;;5028647;28;20060;-47
2021/01/28 02:07:51;;;;;;;36.95;18.98;;;4.40;99.90;;;;;;5030185;28;20068;-46
2021/01/28 02:10:18;;;;;;;40.72;19.40;;;4.40;99.90;;;;;;5030119;28;20143;-45
2021/01/28 02:12:44;;;;;;;37.63;19.95;;;4.50;99.90;;;;;;5029838;28;20044;-46
2021/01/28 02:15:11;;;;;;;37.50;19.05;;;4.50;99.90;;;;;;5027996;28;20026;-48
2021/01/28 02:17:39;;;;;;;41.63;20.58;;;4.50;99.90;;;;;;5029930;28;20032;-48
2021/01/28 02:20:38;;;;;;;39.58;19.40;;;4.50;99.90;;;;;;5029765;28;20107;-45
2021/01/28 02:23:22;;;;;;;43.63;20.25;;;4.50;99.90;;;;;;5029890;28;20057;-45
2021/01/28 02:25:50;;;;;;;39.28;20.05;;;4.60;99.90;;;;;;5029142;28;20145;-47
2021/01/28 02:28:17;;;;;;;42.67;21.70;;;4.60;99.90;;;;;;5029376;28;20059;-46
2021/01/28 02:30:45;;;;;;;39.85;20.10;;;4.60;99.90;;;;;;5030013;28;20025;-47
2021/01/28 02:33:11;;;;;;;47.42;20.75;;;4.60;99.90;;;;;;5029683;28;20025;-44
2021/01/28 02:35:38;;;;;;;43.83;21.17;;;4.70;99.90;;;;;;5029023;28;20048;-47
2021/01/28 02:38:08;;;;;;;38.63;20.05;;;4.70;99.90;;;;;;5029495;28;20069;-48
2021/01/28 02:40:33;;;;;;;46.38;21.70;;;4.70;99.90;;;;;;5029732;28;20074;-44
2021/01/28 02:42:59;;;;;;;42.00;21.73;;;4.70;99.90;;;;;;5029748;28;20491;-46
2021/01/28 02:45:28;;;;;;;43.08;22.42;;;4.70;99.90;;;;;;5029221;28;20425;-46
2021/01/28 02:47:59;;;;;;;45.05;21.77;;;4.70;99.90;;;;;;5029513;28;20029;-46
2021/01/28 02:50:26;;;;;;;45.33;20.92;;;4.80;99.90;;;;;;5029256;28;20499;-45
2021/01/28 02:52:53;;;;;;;50.05;23.58;;;4.80;99.90;;;;;;5029501;28;20030;-45
2021/01/28 02:55:19;;;;;;;44.92;21.33;;;4.70;99.90;;;;;;5028411;28;20060;-45
2021/01/28 02:57:45;;;;;;;43.42;22.60;;;4.80;99.90;;;;;;5029200;28;20308;-45
2021/01/28 03:00:14;;;;;;;47.30;23.70;;;4.80;99.90;;;;;;5029195;28;20045;-45
2021/01/28 03:02:41;;;;;;;43.47;22.30;;;4.80;99.90;;;;;;5028359;28;20430;-45
2021/01/28 03:05:07;;;;;;;40.42;21.45;;;4.80;99.90;;;;;;5028302;28;20087;-46
2021/01/28 03:07:33;;;;;;;49.55;22.90;;;4.80;99.90;;;;;;5028846;28;20025;-47
2021/01/28 03:09:58;;;;;;;49.22;23.13;;;4.80;99.90;;;;;;5029096;28;20056;-45
2021/01/28 03:12:24;;;;;;;41.92;20.58;;;4.80;99.90;;;;;;5011296;28;20030;-45
2021/01/28 03:14:49;;;;;;;49.63;24.35;;;4.80;99.90;;;;;;5028858;28;20044;-46
2021/01/28 03:17:15;;;;;;;44.75;22.23;;;4.90;99.90;;;;;;5028917;28;20033;-45
2021/01/28 03:19:40;;;;;;;45.55;21.58;;;4.90;99.90;;;;;;5028372;28;20040;-45
2021/01/28 03:22:06;;;;;;;42.65;22.10;;;4.90;99.90;;;;;;5028672;28;20037;-48
2021/01/28 03:24:31;;;;;;;41.97;22.05;;;4.90;99.90;;;;;;5028043;28;20479;-46
2021/01/28 03:26:57;;;;;;;39.45;20.63;;;4.90;99.90;;;;;;5028767;28;20068;-46
2021/01/28 03:29:22;;;;;;;40.35;20.52;;;4.90;99.90;;;;;;5028646;28;20422;-44
2021/01/28 03:31:48;;;;;;;40.35;19.65;;;4.90;99.90;;;;;;5027890;28;20506;-44
2021/01/28 03:34:14;;;;;;;35.75;18.08;;;4.90;99.90;;;;;;5027747;28;20036;-45
2021/01/28 03:36:39;;;;;;;37.42;18.63;;;4.90;99.90;;;;;;5027886;28;20505;-49
2021/01/28 03:39:06;;;;;;;36.20;18.23;;;4.90;99.90;;;;;;5028870;28;20051;-44
2021/01/28 03:41:32;;;;;;;34.75;18.17;;;5.00;99.90;;;;;;5028525;28;20056;-44
2021/01/28 03:43:57;;;;;;;31.92;18.05;;;5.00;99.90;;;;;;5028721;28;20071;-48
2021/01/28 03:46:23;;;;;;;32.90;18.08;;;5.00;99.90;;;;;;5028069;28;20021;-44
2021/01/28 03:48:49;;;;;;;35.20;18.35;;;5.00;99.90;;;;;;5027113;28;20022;-45
2021/01/28 03:51:14;;;;;;;34.85;17.52;;;5.00;99.90;;;;;;5028361;28;20445;-44
2021/01/28 03:53:40;;;;;;;34.40;18.85;;;5.00;99.90;;;;;;5028629;28;20044;-44
2021/01/28 03:56:05;;;;;;;31.80;17.00;;;5.00;99.90;;;;;;5027783;28;20026;-45
2021/01/28 03:58:31;;;;;;;33.47;16.23;;;5.00;99.90;;;;;;5028324;28;20029;-46
2021/01/28 04:00:56;;;;;;;31.55;16.30;;;5.00;99.90;;;;;;5028303;28;20096;-46
2021/01/28 04:03:22;;;;;;;30.73;16.95;;;5.00;99.90;;;;;;5028004;28;20025;-45
2021/01/28 04:05:47;;;;;;;28.45;16.15;;;5.00;99.90;;;;;;5027395;28;20022;-48
2021/01/28 04:08:13;;;;;;;32.30;16.63;;;5.00;99.90;;;;;;5028205;28;20548;-47
2021/01/28 04:10:39;;;;;;;34.33;19.13;;;5.00;99.90;;;;;;5028260;28;20022;-48
2021/01/28 04:13:06;;;;;;;33.55;17.10;;;5.00;99.90;;;;;;5028104;28;20033;-46
2021/01/28 04:15:32;;;;;;;32.17;16.50;;;5.00;99.90;;;;;;5027693;28;20029;-45
2021/01/28 04:17:58;;;;;;;33.45;17.05;;;5.00;99.90;;;;;;5031933;28;20029;-45
2021/01/28 04:20:28;;;;;;;29.80;16.25;;;5.00;99.90;;;;;;5032120;28;20477;-46
2021/01/28 04:22:54;;;;;;;29.48;15.95;;;4.90;99.90;;;;;;5032019;28;20037;-45
2021/01/28 04:25:20;;;;;;;27.20;15.15;;;4.90;99.90;;;;;;5031532;28;20315;-45
2021/01/28 04:27:46;;;;;;;29.92;16.35;;;4.90;99.90;;;;;;5032454;28;20120;-44
2021/01/28 04:30:16;;;;;;;30.70;16.70;;;4.90;99.90;;;;;;5032176;28;20065;-46
2021/01/28 04:32:42;;;;;;;25.23;14.23;;;4.90;99.90;;;;;;5031172;28;20040;-45
2021/01/28 04:35:08;;;;;;;28.45;14.82;;;4.90;99.90;;;;;;5031614;28;20057;-45
2021/01/28 04:37:34;;;;;;;25.55;14.70;;;4.90;99.90;;;;;;5031773;28;20394;-46
2021/01/28 04:40:00;;;;;;;26.63;13.90;;;4.90;99.90;;;;;;5031774;28;20654;-45
2021/01/28 04:42:41;;;;;;;29.23;14.43;;;4.80;99.90;;;;;;5031729;28;20041;-46
2021/01/28 04:45:07;;;;;;;;;;;4.80;99.90;;;;;;5031424;28;20017;-45
2021/01/28 04:47:32;;;;;;;26.83;13.52;;;4.80;99.90;;;;;;5031368;28;19905;-45
2021/01/28 04:50:00;;;;;;;24.90;13.77;;;4.80;99.90;;;;;;5031639;28;20029;-46
2021/01/28 04:52:29;;;;;;;25.15;13.05;;;4.80;99.90;;;;;;5031565;28;20112;-44
2021/01/28 04:54:56;;;;;;;21.05;12.73;;;4.80;99.90;;;;;;5031450;28;20115;-45
2021/01/28 04:57:22;;;;;;;21.98;11.68;;;4.80;99.90;;;;;;5031134;28;20431;-47
2021/01/28 04:59:53;;;;;;;21.95;12.43;;;4.80;99.90;;;;;;5031267;28;20033;-45
2021/01/28 05:02:25;;;;;;;23.60;14.00;;;4.70;99.90;;;;;;5030825;28;20044;-46
2021/01/28 05:04:56;;;;;;;22.98;13.32;;;4.70;99.90;;;;;;5025735;28;20029;-45
2021/01/28 05:07:26;;;;;;;24.85;12.70;;;4.70;99.90;;;;;;5029756;28;20029;-46
2021/01/28 05:10:01;;;;;;;;;;;4.60;99.90;;;;;;5031691;28;20032;-45
2021/01/28 05:12:26;;;;;;;21.83;12.32;;;4.60;99.90;;;;;;5030928;28;20943;-45
2021/01/28 05:14:55;;;;;;;23.33;12.05;;;4.60;99.90;;;;;;5029318;28;20025;-45
2021/01/28 05:17:26;;;;;;;25.80;12.95;;;4.60;99.90;;;;;;5021075;28;20293;-44
2021/01/28 05:19:53;;;;;;;21.35;12.23;;;4.60;99.90;;;;;;5021797;28;20503;-45
2021/01/28 05:22:33;;;;;;;22.65;12.32;;;4.60;99.90;;;;;;5021690;28;20034;-48
2021/01/28 05:25:31;;;;;;;;;;;4.60;99.90;;;;;;5027927;28;20128;-47
2021/01/28 05:27:57;;;;;;;24.23;13.00;;;4.60;99.90;;;;;;5025581;28;19905;-46
2021/01/28 05:30:37;;;;;;;23.70;13.10;;;4.60;99.90;;;;;;5030468;28;20013;-46
2021/01/28 05:33:26;;;;;;;25.93;12.93;;;4.60;99.90;;;;;;5019824;28;20026;-45
2021/01/28 05:36:10;;;;;;;25.35;14.18;;;4.60;99.90;;;;;;5026282;28;20296;-45
2021/01/28 05:38:46;;;;;;;27.48;14.32;;;4.60;99.90;;;;;;5021388;28;20479;-46
2021/01/28 05:41:30;;;;;;;21.65;12.70;;;4.60;99.90;;;;;;5019990;28;20048;-46
2021/01/28 05:43:56;;;;;;;22.02;13.13;;;4.60;99.90;;;;;;5010612;28;20021;-45
2021/01/28 05:46:27;;;;;;;24.48;13.10;;;4.60;99.90;;;;;;5027919;28;20036;-45
2021/01/28 05:49:03;;;;;;;27.73;14.10;;;4.60;99.90;;;;;;5027603;28;20075;-47
2021/01/28 05:51:41;;;;;;;21.42;12.35;;;4.60;99.90;;;;;;5027442;28;20104;-45
2021/01/28 05:54:19;;;;;;;22.92;14.13;;;4.60;99.90;;;;;;5029933;28;20091;-45
2021/01/28 05:56:57;;;;;;;24.20;14.13;;;4.60;99.90;;;;;;5025111;28;20022;-45
2021/01/28 05:59:41;;;;;;;27.60;15.13;;;4.60;99.90;;;;;;5021269;28;20025;-46
2021/01/28 06:02:16;;;;;;;22.45;12.85;;;4.60;99.90;;;;;;5026467;28;20030;-45
2021/01/28 06:04:58;;;;;;;28.85;15.25;;;4.60;99.90;;;;;;5028898;28;20037;-47
2021/01/28 06:07:46;;;;;;;29.60;14.77;;;4.50;99.90;;;;;;5026845;28;20179;-45
2021/01/28 06:10:29;;;;;;;27.67;14.50;;;4.60;99.90;;;;;;5027806;28;20538;-47
2021/01/28 06:13:37;;;;;;;25.83;14.05;;;4.50;99.90;;;;;;5018216;28;20494;-46
2021/01/28 06:16:38;;;;;;;23.70;13.05;;;4.50;99.90;;;;;;5020262;28;20030;-45
2021/01/28 06:19:29;;;;;;;27.10;15.02;;;4.50;99.90;;;;;;5028940;28;20164;-46
2021/01/28 06:22:04;;;;;;;27.80;15.35;;;4.50;99.90;;;;;;5021730;28;20023;-49
2021/01/28 06:24:39;;;;;;;22.17;13.52;;;4.50;99.90;;;;;;5017253;28;20037;-47
2021/01/28 06:27:32;;;;;;;28.30;13.50;;;4.50;99.90;;;;;;5028313;28;20032;-45
2021/01/28 06:30:24;;;;;;;21.15;11.80;;;4.50;99.90;;;;;;5019675;28;20048;-45
2021/01/28 06:33:20;;;;;;;26.35;13.02;;;4.50;99.90;;;;;;5022106;28;20450;-48
2021/01/28 06:36:10;;;;;;;21.00;11.50;;;4.50;99.90;;;;;;5020252;28;20543;-47
2021/01/28 06:38:38;;;;;;;27.88;13.55;;;4.50;99.90;;;;;;5018784;28;20018;-46
2021/01/28 06:41:08;;;;;;;21.70;13.35;;;4.50;99.90;;;;;;5019478;28;20064;-45
2021/01/28 06:43:49;;;;;;;25.30;13.27;;;4.50;99.90;;;;;;5019146;28;20025;-44
2021/01/28 06:46:30;;;;;;;23.20;12.10;;;4.50;99.90;;;;;;5022591;28;20479;-46
2021/01/28 06:49:10;;;;;;;24.25;13.63;;;4.50;99.90;;;;;;5026694;28;20395;-44
2021/01/28 06:51:49;;;;;;;23.20;12.85;;;4.50;99.90;;;;;;5029484;28;20455;-46
2021/01/28 06:54:42;;;;;;;22.92;13.15;;;4.40;99.90;;;;;;5011257;28;20530;-46
2021/01/28 06:57:27;;;;;;;21.45;11.60;;;4.40;99.90;;;;;;5006195;28;20472;-46
2021/01/28 07:00:11;;;;;;;21.60;12.88;;;4.40;99.90;;;;;;5006365;28;20037;-46
2021/01/28 07:03:05;;;;;;;24.33;12.70;;;4.40;99.90;;;;;;5029670;28;20123;-46
2021/01/28 07:05:52;;;;;;;27.38;13.52;;;4.40;99.90;;;;;;5027576;28;20348;-47
2021/01/28 07:08:21;;;;;;;25.83;13.68;;;4.40;99.90;;;;;;5024078;28;20031;-46
2021/01/28 07:10:47;;;;;;;24.77;13.80;;;4.40;99.90;;;;;;5017266;28;20494;-45
2021/01/28 07:13:37;;;;;;;26.17;13.60;;;4.40;99.90;;;;;;5019851;28;20167;-48
2021/01/28 07:16:24;;;;;;;23.48;11.65;;;4.40;99.90;;;;;;4982178;28;20117;-46
2021/01/28 07:18:53;;;;;;;24.67;12.60;;;4.40;99.90;;;;;;4978403;28;20030;-46
2021/01/28 07:21:45;;;;;;;24.67;13.75;;;4.40;99.90;;;;;;5025699;28;20042;-46
2021/01/28 07:24:24;;;;;;;26.15;13.13;;;4.40;99.90;;;;;;5024734;28;20398;-46
2021/01/28 07:26:59;;;;;;;23.90;13.18;;;4.40;99.90;;;;;;5023871;28;20029;-46
2021/01/28 07:29:27;;;;;;;24.52;13.52;;;4.30;99.90;;;;;;5022546;28;20029;-47
2021/01/28 07:31:53;;;;;;;23.33;12.40;;;4.40;99.90;;;;;;5024443;28;20025;-46
2021/01/28 07:34:19;;;;;;;25.15;12.70;;;4.40;99.90;;;;;;5029110;28;20082;-46
2021/01/28 07:36:50;;;;;;;20.63;12.48;;;4.40;99.90;;;;;;5028820;28;20097;-48
2021/01/28 07:39:34;;;;;;;21.55;12.75;;;4.40;99.90;;;;;;5011538;28;20021;-47
2021/01/28 07:42:07;;;;;;;23.42;13.13;;;4.50;99.90;;;;;;5025389;28;20112;-45
2021/01/28 07:44:38;;;;;;;23.02;12.38;;;4.50;99.90;;;;;;5027038;28;20056;-45
2021/01/28 07:47:12;;;;;;;20.52;11.68;;;4.40;99.90;;;;;;5025892;28;20068;-46
2021/01/28 07:49:37;;;;;;;25.90;13.20;;;4.50;99.90;;;;;;5027773;28;20048;-45
2021/01/28 07:52:02;;;;;;;23.00;13.45;;;4.50;99.90;;;;;;5027937;28;20371;-50
2021/01/28 07:54:28;;;;;;;30.27;13.85;;;4.50;99.90;;;;;;5028674;28;20034;-45
2021/01/28 07:57:05;;;;;;;26.45;14.10;;;4.50;99.90;;;;;;5029513;28;20113;-48
2021/01/28 07:59:34;;;;;;;23.88;12.63;;;4.50;99.90;;;;;;5029204;28;20472;-46
2021/01/28 08:02:22;;;;;;;23.20;12.15;;;4.50;99.90;;;;;;5028024;28;20391;-47
2021/01/28 08:05:03;;;;;;;22.17;13.02;;;4.50;99.90;;;;;;5028510;28;20037;-45
2021/01/28 08:07:32;;;;;;;22.70;12.27;;;4.50;99.90;;;;;;5029450;28;20022;-46
2021/01/28 08:10:00;;;;;;;23.75;13.98;;;4.60;99.90;;;;;;5029555;28;20041;-46
2021/01/28 08:12:28;;;;;;;24.00;13.00;;;4.60;99.90;;;;;;5029346;28;20085;-45
2021/01/28 08:14:54;;;;;;;27.88;15.18;;;4.60;99.90;;;;;;5028720;28;20045;-45
2021/01/28 08:17:26;;;;;;;22.77;13.82;;;4.60;99.90;;;;;;5029540;28;20415;-45
2021/01/28 08:19:51;;;;;;;24.35;13.55;;;4.50;99.90;;;;;;5027851;28;20074;-43
2021/01/28 08:22:19;;;;;;;23.52;13.02;;;4.50;99.90;;;;;;5028165;28;20059;-46
2021/01/28 08:24:55;;;;;;;28.00;14.27;;;4.50;99.90;;;;;;5027470;28;20025;-45
2021/01/28 08:27:27;;;;;;;27.23;14.32;;;4.60;99.90;;;;;;5028054;28;20079;-46
2021/01/28 08:30:18;;;;;;;24.17;15.07;;;4.60;99.90;;;;;;5028120;28;20514;-47
2021/01/28 08:32:45;;;;;;;21.98;13.63;;;4.60;99.90;;;;;;5028032;28;20036;-45
2021/01/28 08:35:18;;;;;;;24.23;13.27;;;4.60;99.90;;;;;;5027301;28;20049;-47
2021/01/28 08:37:43;;;;;;;25.40;13.95;;;4.60;99.90;;;;;;5028006;28;20061;-45
2021/01/28 08:40:19;;;;;;;25.52;14.27;;;4.60;99.90;;;;;;5026717;28;20317;-46
2021/01/28 08:42:44;;;;;;;23.15;13.77;;;4.60;99.90;;;;;;5026653;28;20510;-49
2021/01/28 08:45:13;;;;;;;23.52;13.68;;;4.60;99.90;;;;;;5027560;28;20112;-46
2021/01/28 08:47:39;;;;;;;22.77;13.40;;;4.60;99.90;;;;;;5028148;28;20026;-45
2021/01/28 08:50:17;;;;;;;24.17;13.05;;;4.60;99.90;;;;;;5027692;28;20487;-46
2021/01/28 08:52:44;;;;;;;23.55;13.68;;;4.50;99.90;;;;;;5027630;28;20039;-47
2021/01/28 08:55:17;;;;;;;23.63;12.95;;;4.50;99.90;;;;;;5028326;28;20061;-47
2021/01/28 08:57:43;;;;;;;22.92;13.15;;;4.50;99.90;;;;;;5029062;28;20034;-47
2021/01/28 09:00:10;;;;;;;22.40;12.38;;;4.50;99.90;;;;;;5029194;28;20079;-45
2021/01/28 09:02:40;;;;;;;18.00;10.40;;;4.50;99.90;;;;;;5031752;28;20030;-45
2021/01/28 09:05:16;;;;;;;17.25;10.48;;;4.40;99.90;;;;;;5030719;28;20030;-45
2021/01/28 09:07:48;;;;;;;14.95;10.00;;;4.40;99.90;;;;;;5031131;28;20017;-46
2021/01/28 09:10:38;;;;;;;17.17;9.30;;;4.40;99.90;;;;;;5031209;28;20108;-46
2021/01/28 09:13:36;;;;;;;18.73;10.75;;;4.40;99.90;;;;;;5031275;28;20025;-45
2021/01/28 09:16:20;;;;;;;17.88;9.63;;;4.30;99.90;;;;;;5018116;28;20041;-46
2021/01/28 09:18:48;;;;;;;15.00;9.35;;;4.30;99.90;;;;;;5030894;28;20025;-45
2021/01/28 09:21:24;;;;;;;16.45;11.07;;;4.30;99.90;;;;;;5013398;28;20026;-46
2021/01/28 09:24:00;;;;;;;17.85;10.73;;;4.30;99.90;;;;;;5031288;28;20083;-47
2021/01/28 09:26:35;;;;;;;16.90;11.30;;;4.30;99.90;;;;;;5030752;28;20430;-46
2021/01/28 09:29:18;;;;;;;18.48;11.55;;;4.30;99.90;;;;;;5031160;28;20025;-45
2021/01/28 09:31:45;;;;;;;18.30;11.43;;;4.20;99.90;;;;;;5030819;28;20037;-46
2021/01/28 09:34:31;;;;;;;17.95;10.98;;;4.30;99.90;;;;;;5029869;28;20034;-47
2021/01/28 09:37:05;;;;;;;16.83;10.93;;;4.30;99.90;;;;;;5030883;28;20037;-45
2021/01/28 09:39:37;;;;;;;18.67;10.73;;;4.20;99.90;;;;;;5029475;28;20033;-46
2021/01/28 09:42:25;;;;;;;22.55;11.90;;;4.30;99.90;;;;;;5030727;28;20039;-45
2021/01/28 09:44:53;;;;;;;23.05;12.65;;;4.30;99.90;;;;;;5030042;28;20057;-46
2021/01/28 09:47:27;;;;;;;20.30;12.48;;;4.20;99.90;;;;;;5030692;28;20021;-46
2021/01/28 09:49:58;;;;;;;22.33;13.10;;;4.30;99.90;;;;;;5030602;28;20048;-46
2021/01/28 09:52:28;;;;;;;24.55;14.18;;;4.30;99.90;;;;;;5030698;28;20589;-47
2021/01/28 09:54:59;;;;;;;24.40;14.60;;;4.20;99.90;;;;;;5030134;28;20039;-46
2021/01/28 09:57:26;;;;;;;25.45;14.75;;;4.30;99.90;;;;;;5028819;28;20117;-46
2021/01/28 09:59:52;;;;;;;24.23;14.57;;;4.20;99.90;;;;;;5030087;28;20040;-46
2021/01/28 10:02:22;;;;;;;23.25;13.60;;;4.30;99.90;;;;;;5030319;28;20105;-49
2021/01/28 10:04:48;;;;;;;23.42;14.60;;;4.30;99.90;;;;;;5029494;28;20057;-47
2021/01/28 10:07:14;;;;;;;28.30;15.90;;;4.40;99.90;;;;;;5030538;28;20076;-45
2021/01/28 10:09:43;;;;;;;19.85;13.60;;;4.40;99.90;;;;;;5030129;28;20026;-45
2021/01/28 10:12:08;;;;;;;28.10;14.20;;;4.40;99.90;;;;;;5029611;28;20052;-45
2021/01/28 10:14:34;;;;;;;22.85;14.13;;;4.50;99.90;;;;;;5028975;28;20455;-46
2021/01/28 10:17:00;;;;;;;32.50;16.25;;;4.40;99.90;;;;;;5030078;28;20042;-45
2021/01/28 10:19:26;;;;;;;21.58;13.90;;;4.50;99.90;;;;;;5029576;28;20104;-46
2021/01/28 10:21:52;;;;;;;24.63;13.20;;;4.50;99.90;;;;;;5029922;28;20441;-47
2021/01/28 10:24:17;;;;;;;20.60;13.40;;;4.50;99.90;;;;;;5029139;28;20048;-45
2021/01/28 10:26:43;;;;;;;25.15;15.00;;;4.50;99.90;;;;;;5027682;28;20611;-46
2021/01/28 10:29:08;;;;;;;22.25;12.57;;;4.50;99.90;;;;;;5028699;28;20021;-49
2021/01/28 10:31:34;;;;;;;20.67;12.50;;;4.50;99.90;;;;;;5028701;28;20549;-46
2021/01/28 10:34:00;;;;;;;18.50;11.32;;;4.60;99.90;;;;;;5028958;28;20033;-45
2021/01/28 10:36:25;;;;;;;19.30;11.15;;;4.60;99.90;;;;;;5028546;28;20034;-45
2021/01/28 10:38:51;;;;;;;17.40;10.85;;;4.60;99.90;;;;;;5029374;28;20029;-46
2021/01/28 10:41:17;;;;;;;21.08;10.63;;;4.60;99.90;;;;;;5029232;28;20092;-46
2021/01/28 10:43:43;;;;;;;16.25;10.57;;;4.70;99.90;;;;;;5029060;28;20032;-46
2021/01/28 10:46:08;;;;;;;17.92;11.18;;;4.70;99.90;;;;;;5028364;28;20026;-47
2021/01/28 10:48:35;;;;;;;17.98;11.00;;;4.70;99.90;;;;;;5029210;28;20036;-46
2021/01/28 10:51:01;;;;;;;21.83;12.77;;;4.80;99.90;;;;;;5011789;28;20032;-46
2021/01/28 10:53:27;;;;;;;20.02;10.88;;;4.70;99.90;;;;;;5029348;28;20036;-47
2021/01/28 10:55:52;;;;;;;19.63;12.60;;;4.70;99.90;;;;;;5028435;28;20026;-45
2021/01/28 10:58:21;;;;;;;24.00;13.07;;;4.80;99.90;;;;;;5029026;28;20080;-47
2021/01/28 11:00:47;;;;;;;21.75;12.23;;;4.80;99.90;;;;;;5029355;28;20032;-47
2021/01/28 11:03:13;;;;;;;24.83;13.00;;;4.80;99.90;;;;;;5028695;28;20116;-46
2021/01/28 11:05:38;;;;;;;23.02;12.00;;;4.70;99.90;;;;;;5027790;28;20124;-46
2021/01/28 11:08:06;;;;;;;22.40;11.48;;;4.70;99.90;;;;;;5028936;28;20475;-46
2021/01/28 11:10:32;;;;;;;20.83;11.73;;;4.70;99.90;;;;;;5027715;28;20049;-46
2021/01/28 11:12:59;;;;;;;18.42;11.65;;;4.70;99.90;;;;;;5028776;28;20378;-45
2021/01/28 11:15:28;;;;;;;20.48;11.02;;;4.80;99.90;;;;;;5028390;28;20113;-48
2021/01/28 11:17:54;;;;;;;18.65;10.70;;;4.80;99.90;;;;;;5028733;28;20033;-46
2021/01/28 11:20:20;;;;;;;19.85;10.77;;;4.90;99.90;;;;;;5029279;28;20184;-46
2021/01/28 11:22:45;;;;;;;20.50;11.10;;;4.90;99.90;;;;;;5028593;28;20025;-46
2021/01/28 11:25:22;;;;;;;18.67;10.40;;;4.80;99.90;;;;;;5027725;28;20479;-46
2021/01/28 11:27:48;;;;;;;15.93;8.98;;;4.80;99.90;;;;;;5028796;28;20035;-46
2021/01/28 11:30:17;;;;;;;16.10;9.45;;;4.80;99.90;;;;;;5028747;28;20029;-46
2021/01/28 11:32:43;;;;;;;18.13;9.85;;;4.80;99.90;;;;;;5024516;28;20051;-45
2021/01/28 11:35:10;;;;;;;15.43;9.25;;;4.80;99.90;;;;;;5014915;28;20037;-47
2021/01/28 11:37:36;;;;;;;20.58;10.30;;;4.80;99.90;;;;;;5011891;28;20030;-49
2021/01/28 11:40:03;;;;;;;19.40;10.55;;;4.80;99.90;;;;;;4994614;28;20279;-46
2021/01/28 11:42:29;;;;;;;20.33;10.43;;;4.80;99.90;;;;;;5019551;28;20034;-47
2021/01/28 11:44:55;;;;;;;18.38;9.63;;;4.80;99.90;;;;;;5016577;28;20038;-47
2021/01/28 11:47:24;;;;;;;16.83;9.68;;;4.90;99.90;;;;;;5018169;28;20021;-48
2021/01/28 11:49:50;;;;;;;19.33;9.88;;;4.90;99.90;;;;;;5022984;28;20025;-45
2021/01/28 11:52:15;;;;;;;17.20;9.07;;;4.80;99.90;;;;;;5022641;28;20033;-46
2021/01/28 11:54:41;;;;;;;19.00;9.95;;;5.00;99.90;;;;;;5009648;28;20037;-46
2021/01/28 11:57:06;;;;;;;19.92;9.50;;;5.00;99.90;;;;;;5026316;28;20041;-47
2021/01/28 11:59:32;;;;;;;17.60;9.38;;;5.00;99.90;;;;;;5027630;28;20413;-44
2021/01/28 12:01:58;;;;;;;18.83;10.23;;;5.10;99.90;;;;;;5022909;28;20310;-47
2021/01/28 12:04:24;;;;;;;16.67;8.88;;;5.20;99.90;;;;;;5013777;28;20057;-45
2021/01/28 12:06:49;;;;;;;17.52;9.35;;;5.30;99.90;;;;;;5024579;28;20391;-46
2021/01/28 12:09:15;;;;;;;20.13;9.52;;;5.40;99.90;;;;;;5027627;28;20086;-46
2021/01/28 12:11:40;;;;;;;16.60;8.65;;;5.40;99.90;;;;;;5027691;28;20493;-46
2021/01/28 12:14:06;;;;;;;19.52;10.27;;;5.40;99.90;;;;;;5027633;28;20491;-47
2021/01/28 12:16:33;;;;;;;18.60;9.68;;;5.40;99.90;;;;;;5027324;28;20053;-45
2021/01/28 12:18:58;;;;;;;17.55;9.50;;;5.40;99.90;;;;;;5027864;28;20351;-47
2021/01/28 12:21:25;;;;;;;16.98;9.18;;;5.30;99.90;;;;;;5009922;28;20073;-46
2021/01/28 12:23:51;;;;;;;17.55;8.68;;;5.40;99.90;;;;;;5027894;28;20033;-46
2021/01/28 12:26:16;;;;;;;15.65;8.77;;;5.40;99.90;;;;;;5027095;28;20025;-45
2021/01/28 12:28:42;;;;;;;20.23;10.85;;;5.50;99.90;;;;;;5009530;28;20021;-46
2021/01/28 12:31:08;;;;;;;15.68;9.23;;;5.40;99.90;;;;;;5027452;28;20033;-45
2021/01/28 12:33:39;;;;;;;16.35;8.88;;;5.50;99.90;;;;;;5026954;28;20103;-46
2021/01/28 12:36:05;;;;;;;15.88;9.13;;;5.40;99.90;;;;;;5027657;28;20402;-46
2021/01/28 12:38:31;;;;;;;16.60;9.23;;;5.40;99.90;;;;;;5014484;28;20271;-45
2021/01/28 12:40:56;;;;;;;15.60;9.25;;;5.50;99.90;;;;;;5031654;28;20567;-46
2021/01/28 12:43:22;;;;;;;18.75;9.95;;;5.50;99.90;;;;;;5031320;28;20033;-47
2021/01/28 12:45:47;;;;;;;19.80;10.15;;;5.40;99.90;;;;;;5031221;28;20538;-46
2021/01/28 12:48:13;;;;;;;16.42;9.30;;;5.40;99.90;;;;;;5030245;28;20035;-47
2021/01/28 12:50:38;;;;;;;20.85;10.10;;;5.40;99.90;;;;;;5031266;28;20446;-46
2021/01/28 12:53:03;;;;;;;22.00;10.75;;;5.40;99.90;;;;;;5031753;28;20080;-45
2021/01/28 12:55:29;;;;;;;19.70;10.00;;;5.30;99.90;;;;;;5030855;28;20526;-46